Time;durP1;ratioP1;P1;durP2;ratioP2;P2;SDS_P1;SDS_P2;PMS_P1;PMS_P2;Temp;Humidity;BMP_temperature;BMP_pressure;BME280_temperature;BME280_humidity;BME280_pressure;Samples;Min_cycle;Max_cycle;Signal;HPM_P1;HPM_P2
2022/08/08 00:00:13;;;;;;;;;;;21.50;55.00;;;;;;471376;252;1072;-51
2022/08/08 00:02:14;;;;;;;;;;;21.50;55.10;;;;;;471390;252;1122;-51
2022/08/08 00:04:15;;;;;;;;;;;21.50;55.00;;;;;;471709;252;1062;-51
2022/08/08 00:06:17;;;;;;;;;;;21.50;55.10;;;;;;471534;252;1060;-51
2022/08/08 00:08:18;;;;;;;;;;;21.50;55.10;;;;;;471603;252;1126;-50
2022/08/08 00:10:20;;;;;;;;;;;21.50;55.10;;;;;;471387;252;1198;-50
2022/08/08 00:12:21;;;;;;;;;;;21.50;55.20;;;;;;471489;252;1342;-50
2022/08/08 00:14:23;;;;;;;;;;;21.50;55.10;;;;;;471758;252;1304;-51
2022/08/08 00:16:24;;;;;;;;;;;21.50;55.10;;;;;;471460;251;2144;-50
2022/08/08 00:18:25;;;;;;;;;;;21.50;55.10;;;;;;471808;252;1205;-50
2022/08/08 00:20:27;;;;;;;;;;;21.50;55.00;;;;;;471370;252;1224;-50
2022/08/08 00:22:28;;;;;;;;;;;21.50;55.10;;;;;;471362;252;1217;-50
2022/08/08 00:24:29;;;;;;;;;;;21.50;55.20;;;;;;471418;252;1314;-50
2022/08/08 00:26:31;;;;;;;;;;;21.50;55.10;;;;;;471783;252;1306;-51
2022/08/08 00:28:32;;;;;;;;;;;21.50;55.10;;;;;;471473;252;1302;-51
2022/08/08 00:30:33;;;;;;;;;;;21.50;55.20;;;;;;471530;252;1244;-50
2022/08/08 00:32:35;;;;;;;;;;;21.50;55.20;;;;;;471297;252;1222;-50
2022/08/08 00:36:55;;;;;;;;;;;21.50;55.20;;;;;;471480;251;2112;-51
2022/08/08 00:38:57;;;;;;;;;;;21.50;55.10;;;;;;471586;252;1103;-50
2022/08/08 00:40:58;;;;;;;;;;;21.50;55.20;;;;;;471607;252;1103;-50
2022/08/08 00:42:59;;;;;;;;;;;21.50;55.20;;;;;;471479;252;1284;-50
2022/08/08 00:45:01;;;;;;;;;;;21.50;55.20;;;;;;471438;252;1074;-51
2022/08/08 00:47:02;;;;;;;;;;;21.50;55.20;;;;;;471346;252;1093;-51
2022/08/08 00:49:03;;;;;;;;;;;21.40;55.20;;;;;;471707;252;1067;-50
2022/08/08 00:51:06;;;;;;;;;;;21.40;55.20;;;;;;471794;252;1061;-51
2022/08/08 00:53:07;;;;;;;;;;;21.50;55.20;;;;;;471816;252;1190;-50
2022/08/08 00:55:08;;;;;;;;;;;21.50;55.20;;;;;;471692;252;2191;-51
2022/08/08 00:57:10;;;;;;;;;;;21.50;55.20;;;;;;474660;248;1311;-50
2022/08/08 00:59:11;;;;;;;;;;;21.50;55.30;;;;;;481429;248;1200;-50
2022/08/08 01:01:12;;;;;;;;;;;21.50;55.20;;;;;;481480;248;1052;-50
2022/08/08 01:03:14;;;;;;;;;;;21.50;55.20;;;;;;481274;248;1047;-50
2022/08/08 01:05:15;;;;;;;;;;;21.50;55.30;;;;;;481322;248;1103;-50
2022/08/08 01:07:17;;;;;;;;;;;21.50;55.30;;;;;;481205;248;1262;-50
2022/08/08 01:09:18;;;;;;;;;;;21.50;55.20;;;;;;481414;248;1064;-51
2022/08/08 01:11:19;;;;;;;;;;;21.50;55.20;;;;;;481644;248;1382;-50
2022/08/08 01:13:21;;;;;;;;;;;21.50;55.30;;;;;;481632;248;1130;-51
2022/08/08 01:15:22;;;;;;;;;;;21.50;55.20;;;;;;481159;248;2190;-50
2022/08/08 01:17:24;;;;;;;;;;;21.50;55.30;;;;;;481476;248;1405;-50
2022/08/08 01:19:25;;;;;;;;;;;21.50;55.20;;;;;;481644;248;1081;-51
2022/08/08 01:21:26;;;;;;;;;;;21.40;55.30;;;;;;481252;248;1120;-50
2022/08/08 01:23:27;;;;;;;;;;;21.50;55.30;;;;;;481608;248;1233;-51
2022/08/08 01:25:29;;;;;;;;;;;21.50;55.30;;;;;;481191;248;1235;-51
2022/08/08 01:27:30;;;;;;;;;;;21.40;55.30;;;;;;481203;248;1285;-51
2022/08/08 01:29:31;;;;;;;;;;;21.50;55.30;;;;;;481344;248;1212;-51
2022/08/08 01:31:33;;;;;;;;;;;21.50;55.30;;;;;;481217;248;1295;-51
2022/08/08 01:33:34;;;;;;;;;;;21.50;55.30;;;;;;481609;248;1216;-51
2022/08/08 01:35:35;;;;;;;;;;;21.50;55.30;;;;;;481680;248;2197;-51
2022/08/08 01:37:37;;;;;;;;;;;21.40;55.30;;;;;;481221;248;1261;-50
2022/08/08 01:39:38;;;;;;;;;;;21.40;55.30;;;;;;481223;248;1400;-50
2022/08/08 01:41:40;;;;;;;;;;;21.40;55.30;;;;;;481246;248;1215;-51
2022/08/08 01:43:41;;;;;;;;;;;21.40;55.40;;;;;;481269;248;1196;-51
2022/08/08 01:45:42;;;;;;;;;;;21.40;55.30;;;;;;481647;248;1202;-51
2022/08/08 01:47:44;;;;;;;;;;;21.40;55.30;;;;;;481206;248;1250;-51
2022/08/08 01:49:45;;;;;;;;;;;21.50;55.40;;;;;;481687;248;1115;-51
2022/08/08 01:51:46;;;;;;;;;;;21.50;55.40;;;;;;481371;248;1039;-51
2022/08/08 01:53:48;;;;;;;;;;;21.50;55.30;;;;;;481226;248;1067;-50
2022/08/08 01:55:49;;;;;;;;;;;21.50;55.30;;;;;;481639;248;2138;-50
2022/08/08 01:57:50;;;;;;;;;;;21.50;55.30;;;;;;481221;248;1379;-51
2022/08/08 01:59:51;;;;;;;;;;;21.50;55.30;;;;;;481377;248;1259;-50
2022/08/08 02:01:53;;;;;;;;;;;21.40;55.30;;;;;;481439;248;1080;-51
2022/08/08 02:03:54;;;;;;;;;;;21.50;55.30;;;;;;481667;248;1083;-50
2022/08/08 02:05:55;;;;;;;;;;;21.50;55.40;;;;;;481350;248;1204;-50
2022/08/08 02:07:57;;;;;;;;;;;21.50;55.40;;;;;;481451;248;1282;-51
2022/08/08 02:09:58;;;;;;;;;;;21.50;55.40;;;;;;481259;248;1042;-50
2022/08/08 02:12:00;;;;;;;;;;;21.40;55.30;;;;;;481244;248;1087;-51
2022/08/08 02:14:01;;;;;;;;;;;21.50;55.30;;;;;;481211;248;1218;-50
2022/08/08 02:16:02;;;;;;;;;;;21.40;55.30;;;;;;481186;248;2189;-50
2022/08/08 02:18:04;;;;;;;;;;;21.50;55.40;;;;;;481493;248;1061;-51
2022/08/08 02:20:05;;;;;;;;;;;21.50;55.40;;;;;;481547;248;1120;-50
2022/08/08 02:24:25;;;;;;;;;;;21.50;55.40;;;;;;481428;247;1036;-50
2022/08/08 02:26:27;;;;;;;;;;;21.50;55.40;;;;;;481304;248;1054;-51
2022/08/08 02:28:28;;;;;;;;;;;21.50;55.30;;;;;;481615;248;1073;-50
2022/08/08 02:30:29;;;;;;;;;;;21.50;55.30;;;;;;481273;248;1230;-50
2022/08/08 02:32:31;;;;;;;;;;;21.50;55.40;;;;;;481249;248;1090;-50
2022/08/08 02:34:32;;;;;;;;;;;21.40;55.30;;;;;;481311;248;998;-50
2022/08/08 02:36:34;;;;;;;;;;;21.50;55.40;;;;;;481217;248;2134;-50
2022/08/08 02:38:35;;;;;;;;;;;21.50;55.30;;;;;;481552;248;1052;-50
2022/08/08 02:40:36;;;;;;;;;;;21.50;55.40;;;;;;481423;248;1019;-50
2022/08/08 02:42:38;;;;;;;;;;;21.50;55.40;;;;;;481503;248;1062;-50
2022/08/08 02:44:39;;;;;;;;;;;21.50;55.40;;;;;;481248;248;1575;-50
2022/08/08 02:46:41;;;;;;;;;;;21.50;55.40;;;;;;481273;248;1147;-50
2022/08/08 02:48:42;;;;;;;;;;;21.50;55.40;;;;;;481716;248;1067;-50
2022/08/08 02:50:43;;;;;;;;;;;21.40;55.40;;;;;;481278;248;1107;-50
2022/08/08 02:52:45;;;;;;;;;;;21.50;55.40;;;;;;481736;248;1110;-50
2022/08/08 02:54:46;;;;;;;;;;;21.40;55.30;;;;;;481449;248;1069;-50
2022/08/08 02:56:47;;;;;;;;;;;21.50;55.40;;;;;;481394;248;2178;-50
2022/08/08 02:58:49;;;;;;;;;;;21.40;55.40;;;;;;481548;247;1197;-50
2022/08/08 03:00:50;;;;;;;;;;;21.50;55.50;;;;;;482251;247;1179;-50
2022/08/08 03:02:51;;;;;;;;;;;21.40;55.40;;;;;;482646;247;1243;-51
2022/08/08 03:04:53;;;;;;;;;;;21.50;55.50;;;;;;482210;247;1238;-51
2022/08/08 03:06:54;;;;;;;;;;;21.40;55.40;;;;;;482480;247;1211;-51
2022/08/08 03:08:55;;;;;;;;;;;21.40;55.50;;;;;;482440;247;1250;-49
2022/08/08 03:10:57;;;;;;;;;;;21.50;55.50;;;;;;482116;247;1224;-50
2022/08/08 03:12:58;;;;;;;;;;;21.40;55.50;;;;;;482558;247;1292;-51
2022/08/08 03:14:59;;;;;;;;;;;21.50;55.40;;;;;;482213;246;1227;-50
2022/08/08 03:17:01;;;;;;;;;;;21.40;55.30;;;;;;482149;247;2133;-50
2022/08/08 03:19:02;;;;;;;;;;;21.50;55.40;;;;;;482247;247;1440;-51
2022/08/08 03:21:03;;;;;;;;;;;21.50;55.40;;;;;;482431;247;1068;-51
2022/08/08 03:23:05;;;;;;;;;;;21.40;55.40;;;;;;482159;247;1207;-51
2022/08/08 03:25:06;;;;;;;;;;;21.40;55.50;;;;;;482154;247;1215;-51
2022/08/08 03:27:07;;;;;;;;;;;21.50;55.50;;;;;;482181;247;1024;-50
2022/08/08 03:29:09;;;;;;;;;;;21.40;55.40;;;;;;482175;247;1047;-51
2022/08/08 03:33:30;;;;;;;;;;;21.50;55.40;;;;;;482574;247;1103;-51
2022/08/08 03:35:32;;;;;;;;;;;21.50;55.40;;;;;;482564;247;1129;-51
2022/08/08 03:37:33;;;;;;;;;;;21.50;55.40;;;;;;482121;247;2205;-50
2022/08/08 03:39:34;;;;;;;;;;;21.50;55.40;;;;;;482515;247;1093;-51
2022/08/08 03:41:36;;;;;;;;;;;21.50;55.50;;;;;;482154;247;1342;-50
2022/08/08 03:43:37;;;;;;;;;;;21.50;55.50;;;;;;482421;247;1189;-51
2022/08/08 03:45:40;;;;;;;;;;;21.50;55.50;;;;;;482204;247;1202;-50
2022/08/08 03:47:40;;;;;;;;;;;21.50;55.40;;;;;;482568;247;2412;-50
2022/08/08 03:49:41;;;;;;;;;;;21.40;55.40;;;;;;482215;247;1069;-51
2022/08/08 03:51:42;;;;;;;;;;;21.40;55.50;;;;;;482053;247;1050;-51
2022/08/08 03:53:44;;;;;;;;;;;21.40;55.40;;;;;;482374;247;1084;-50
2022/08/08 03:55:45;;;;;;;;;;;21.40;55.50;;;;;;482334;247;1053;-51
2022/08/08 03:57:46;;;;;;;;;;;21.50;55.50;;;;;;482080;247;2138;-50
2022/08/08 03:59:48;;;;;;;;;;;21.40;55.50;;;;;;482238;247;1068;-50
2022/08/08 04:01:49;;;;;;;;;;;21.50;55.50;;;;;;482156;247;1137;-50
2022/08/08 04:03:50;;;;;;;;;;;21.40;55.40;;;;;;482558;247;1083;-51
2022/08/08 04:05:52;;;;;;;;;;;21.50;55.50;;;;;;482053;247;1169;-51
2022/08/08 04:07:53;;;;;;;;;;;21.40;55.40;;;;;;482079;247;1231;-50
2022/08/08 04:09:54;;;;;;;;;;;21.50;55.50;;;;;;482539;247;1381;-51
2022/08/08 04:11:56;;;;;;;;;;;21.50;55.50;;;;;;482164;247;1240;-50
2022/08/08 04:13:57;;;;;;;;;;;21.40;55.40;;;;;;482099;247;1257;-51
2022/08/08 04:15:58;;;;;;;;;;;21.40;55.50;;;;;;482071;247;1700;-50
2022/08/08 04:18:00;;;;;;;;;;;21.50;55.50;;;;;;482153;247;2212;-51
2022/08/08 04:20:01;;;;;;;;;;;21.40;55.50;;;;;;482103;247;1299;-50
2022/08/08 04:22:02;;;;;;;;;;;21.40;55.50;;;;;;482009;247;1188;-51
2022/08/08 04:24:04;;;;;;;;;;;21.50;55.50;;;;;;482022;247;1259;-51
2022/08/08 04:26:05;;;;;;;;;;;21.40;55.40;;;;;;482260;247;1534;-51
2022/08/08 04:28:07;;;;;;;;;;;21.50;55.50;;;;;;482013;247;1254;-50
2022/08/08 04:30:08;;;;;;;;;;;21.50;55.50;;;;;;482087;247;1279;-50
2022/08/08 04:32:13;;;;;;;;;;;21.50;55.50;;;;;;482069;247;1184;-50
2022/08/08 04:34:11;;;;;;;;;;;21.50;55.50;;;;;;482488;247;1544;-51
2022/08/08 04:36:12;;;;;;;;;;;21.50;55.50;;;;;;482211;247;1094;-51
2022/08/08 04:38:14;;;;;;;;;;;21.40;55.50;;;;;;481998;247;2201;-51
2022/08/08 04:40:16;;;;;;;;;;;21.50;55.50;;;;;;481997;247;1180;-50
2022/08/08 04:42:17;;;;;;;;;;;21.50;55.60;;;;;;482376;246;1098;-50
2022/08/08 04:44:18;;;;;;;;;;;21.40;55.50;;;;;;482309;247;1070;-50
2022/08/08 04:46:19;;;;;;;;;;;21.40;55.50;;;;;;482251;247;1212;-50
2022/08/08 04:48:21;;;;;;;;;;;21.50;55.50;;;;;;482039;247;1040;-50
2022/08/08 04:50:22;;;;;;;;;;;21.50;55.50;;;;;;481999;247;1107;-50
2022/08/08 04:52:24;;;;;;;;;;;21.50;55.60;;;;;;481914;247;1114;-51
2022/08/08 04:54:25;;;;;;;;;;;21.40;55.50;;;;;;481947;247;1145;-51
2022/08/08 04:56:26;;;;;;;;;;;21.40;55.50;;;;;;481991;247;1069;-51
2022/08/08 04:58:27;;;;;;;;;;;21.40;55.60;;;;;;482001;247;2189;-50
2022/08/08 05:00:29;;;;;;;;;;;21.40;55.50;;;;;;481838;247;1075;-50
2022/08/08 05:02:30;;;;;;;;;;;21.40;55.60;;;;;;481937;247;1237;-50
2022/08/08 05:04:31;;;;;;;;;;;21.40;55.60;;;;;;482019;247;1065;-50
2022/08/08 05:06:33;;;;;;;;;;;21.50;55.60;;;;;;481879;247;1104;-50
2022/08/08 05:08:34;;;;;;;;;;;21.40;55.50;;;;;;482092;247;1115;-51
2022/08/08 05:10:35;;;;;;;;;;;21.40;55.50;;;;;;481950;247;1097;-50
2022/08/08 05:12:37;;;;;;;;;;;21.50;55.60;;;;;;482227;247;1049;-51
2022/08/08 05:14:38;;;;;;;;;;;21.40;55.50;;;;;;482009;247;1516;-50
2022/08/08 05:16:39;;;;;;;;;;;21.40;55.50;;;;;;481993;247;2161;-51
2022/08/08 05:18:41;;;;;;;;;;;21.40;55.60;;;;;;482060;247;1085;-51
2022/08/08 05:20:42;;;;;;;;;;;21.40;55.60;;;;;;482199;247;1208;-51
2022/08/08 05:22:44;;;;;;;;;;;21.40;55.60;;;;;;482094;247;1594;-50
2022/08/08 05:24:45;;;;;;;;;;;21.40;55.60;;;;;;481809;247;1537;-52
2022/08/08 05:26:46;;;;;;;;;;;21.40;55.60;;;;;;481859;247;1096;-50
2022/08/08 05:28:48;;;;;;;;;;;21.40;55.60;;;;;;481748;247;1184;-51
2022/08/08 05:30:49;;;;;;;;;;;21.40;55.50;;;;;;481779;247;1297;-51
2022/08/08 05:32:52;;;;;;;;;;;21.50;55.60;;;;;;481865;247;1172;-52
2022/08/08 05:34:52;;;;;;;;;;;21.40;55.60;;;;;;481915;247;2043;-50
2022/08/08 05:36:53;;;;;;;;;;;21.40;55.50;;;;;;482030;247;2205;-50
2022/08/08 05:38:55;;;;;;;;;;;21.50;55.60;;;;;;482048;247;1102;-50
2022/08/08 05:40:56;;;;;;;;;;;21.40;55.60;;;;;;482261;247;1114;-51
2022/08/08 05:42:57;;;;;;;;;;;21.50;55.60;;;;;;481915;247;1111;-51
2022/08/08 05:44:59;;;;;;;;;;;21.50;55.50;;;;;;482184;247;1069;-51
2022/08/08 05:47:00;;;;;;;;;;;21.60;55.00;;;;;;477306;247;1353;-50
2022/08/08 05:49:01;;;;;;;;;;;21.60;54.70;;;;;;481271;247;1098;-50
2022/08/08 05:51:03;;;;;;;;;;;21.70;54.50;;;;;;481841;247;1119;-51
2022/08/08 05:53:04;;;;;;;;;;;21.70;54.20;;;;;;482022;247;1123;-51
2022/08/08 05:55:06;;;;;;;;;;;21.70;54.00;;;;;;482102;247;1154;-50
2022/08/08 05:57:07;;;;;;;;;;;21.70;53.80;;;;;;482168;247;2196;-50
2022/08/08 05:59:08;;;;;;;;;;;21.80;53.60;;;;;;482119;247;1201;-50
2022/08/08 06:01:10;;;;;;;;;;;21.80;53.50;;;;;;481937;247;1190;-51
2022/08/08 06:03:11;;;;;;;;;;;21.80;53.30;;;;;;481729;247;1217;-50
2022/08/08 06:05:14;;;;;;;;;;;21.80;53.10;;;;;;481768;247;1222;-50
2022/08/08 06:07:14;;;;;;;;;;;21.80;53.10;;;;;;481644;247;1743;-51
2022/08/08 06:09:15;;;;;;;;;;;21.80;52.90;;;;;;481719;247;1159;-51
2022/08/08 06:11:16;;;;;;;;;;;21.80;52.80;;;;;;481658;247;1273;-52
2022/08/08 06:13:18;;;;;;;;;;;21.80;52.70;;;;;;481875;247;1236;-51
2022/08/08 06:15:19;;;;;;;;;;;21.80;52.60;;;;;;481781;247;1173;-51
2022/08/08 06:17:20;;;;;;;;;;;21.80;52.60;;;;;;481953;247;2162;-50
2022/08/08 06:19:22;;;;;;;;;;;21.80;52.40;;;;;;481869;247;1203;-51
2022/08/08 06:21:23;;;;;;;;;;;21.80;52.30;;;;;;481845;247;1099;-51
2022/08/08 06:23:24;;;;;;;;;;;21.90;52.30;;;;;;481807;247;1182;-51
2022/08/08 06:25:26;;;;;;;;;;;21.80;52.10;;;;;;482029;247;1105;-51
2022/08/08 06:27:27;;;;;;;;;;;21.90;52.10;;;;;;481876;247;1055;-50
2022/08/08 06:29:29;;;;;;;;;;;21.80;52.00;;;;;;481632;247;1065;-51
2022/08/08 06:31:30;;;;;;;;;;;21.90;51.90;;;;;;481571;247;1047;-50
2022/08/08 06:33:31;;;;;;;;;;;21.90;51.80;;;;;;481834;247;1147;-50
2022/08/08 06:35:33;;;;;;;;;;;21.90;51.70;;;;;;481733;247;1119;-50
2022/08/08 06:37:34;;;;;;;;;;;21.90;51.70;;;;;;481821;247;2200;-51
2022/08/08 06:39:35;;;;;;;;;;;21.90;51.60;;;;;;481924;247;1243;-51
2022/08/08 06:41:37;;;;;;;;;;;21.90;51.40;;;;;;481625;247;1084;-51
2022/08/08 06:43:38;;;;;;;;;;;21.90;51.40;;;;;;481637;247;1053;-50
2022/08/08 06:45:39;;;;;;;;;;;21.90;51.30;;;;;;481398;247;1571;-51
2022/08/08 06:47:41;;;;;;;;;;;21.90;51.30;;;;;;481574;247;1327;-50
2022/08/08 06:49:42;;;;;;;;;;;21.90;51.30;;;;;;481572;247;1119;-51
2022/08/08 06:51:43;;;;;;;;;;;21.90;51.30;;;;;;481329;247;1151;-51
2022/08/08 06:53:45;;;;;;;;;;;21.90;51.20;;;;;;481523;247;1142;-51
2022/08/08 06:55:46;;;;;;;;;;;21.90;51.10;;;;;;481615;247;1144;-51
2022/08/08 06:57:47;;;;;;;;;;;21.90;51.00;;;;;;481530;247;2177;-51
2022/08/08 06:59:49;;;;;;;;;;;21.90;51.00;;;;;;481685;247;1151;-50
2022/08/08 07:01:50;;;;;;;;;;;21.90;50.90;;;;;;481616;247;1169;-51
2022/08/08 07:03:51;;;;;;;;;;;21.90;50.80;;;;;;481399;247;1147;-51
2022/08/08 07:05:53;;;;;;;;;;;21.90;50.80;;;;;;481473;246;1187;-51
2022/08/08 07:07:54;;;;;;;;;;;21.90;50.60;;;;;;481636;247;1096;-51
2022/08/08 07:09:55;;;;;;;;;;;22.00;50.70;;;;;;481577;247;1104;-51
2022/08/08 07:11:57;;;;;;;;;;;21.90;50.60;;;;;;481613;247;1180;-51
2022/08/08 07:13:58;;;;;;;;;;;21.90;50.60;;;;;;481453;247;1177;-49
2022/08/08 07:16:00;;;;;;;;;;;21.90;50.50;;;;;;481574;247;1183;-50
2022/08/08 07:18:01;;;;;;;;;;;21.90;50.50;;;;;;477279;247;2194;-51
2022/08/08 07:20:02;;;;;;;;;;;21.90;50.40;;;;;;471155;252;1214;-50
2022/08/08 07:22:03;;;;;;;;;;;21.90;50.40;;;;;;480766;247;1143;-50
2022/08/08 07:24:05;;;;;;;;;;;22.00;50.30;;;;;;481293;247;1193;-51
2022/08/08 07:26:06;;;;;;;;;;;22.00;50.30;;;;;;481423;247;1221;-50
2022/08/08 07:28:08;;;;;;;;;;;21.90;50.20;;;;;;481634;247;1113;-51
2022/08/08 07:30:09;;;;;;;;;;;21.90;50.20;;;;;;481583;247;1145;-51
2022/08/08 07:32:11;;;;;;;;;;;21.90;50.20;;;;;;481539;247;1090;-50
2022/08/08 07:34:12;;;;;;;;;;;21.90;50.10;;;;;;481553;247;1122;-51
2022/08/08 07:36:13;;;;;;;;;;;22.00;50.00;;;;;;481626;247;1104;-51
2022/08/08 07:38:15;;;;;;;;;;;22.00;50.00;;;;;;481595;247;2134;-50
2022/08/08 07:40:16;;;;;;;;;;;21.90;50.00;;;;;;481515;247;1253;-51
2022/08/08 07:42:17;;;;;;;;;;;22.00;50.00;;;;;;481664;247;1157;-51
2022/08/08 07:44:19;;;;;;;;;;;21.90;49.90;;;;;;481555;247;1097;-51
2022/08/08 07:46:20;;;;;;;;;;;21.90;49.90;;;;;;481437;247;1094;-51
2022/08/08 07:48:21;;;;;;;;;;;21.90;49.90;;;;;;481616;247;1170;-51
2022/08/08 07:50:23;;;;;;;;;;;22.00;49.80;;;;;;481564;247;1109;-51
2022/08/08 07:52:24;;;;;;;;;;;22.00;49.70;;;;;;481446;246;1088;-52
2022/08/08 07:54:25;;;;;;;;;;;22.00;49.70;;;;;;481386;247;1098;-51
2022/08/08 07:56:27;;;;;;;;;;;22.00;49.60;;;;;;481390;247;1111;-50
2022/08/08 07:58:28;;;;;;;;;;;22.00;49.70;;;;;;481338;247;2205;-50
2022/08/08 08:00:30;;;;;;;;;;;22.00;49.60;;;;;;481360;247;1154;-51
2022/08/08 08:02:31;;;;;;;;;;;22.00;49.50;;;;;;481177;247;1141;-51
2022/08/08 08:04:32;;;;;;;;;;;22.00;49.50;;;;;;481360;247;1273;-51
2022/08/08 08:06:34;;;;;;;;;;;22.00;49.50;;;;;;481312;247;1223;-50
2022/08/08 08:08:35;;;;;;;;;;;22.00;49.40;;;;;;481718;247;1069;-50
2022/08/08 08:10:37;;;;;;;;;;;22.00;49.30;;;;;;481607;247;1154;-50
2022/08/08 08:12:38;;;;;;;;;;;22.00;49.30;;;;;;481824;247;1133;-51
2022/08/08 08:14:39;;;;;;;;;;;22.00;49.20;;;;;;481563;247;1141;-51
2022/08/08 08:16:40;;;;;;;;;;;22.00;49.20;;;;;;481653;247;1151;-51
2022/08/08 08:18:42;;;;;;;;;;;22.00;49.20;;;;;;481762;247;2196;-51
2022/08/08 08:20:43;;;;;;;;;;;22.00;49.20;;;;;;481482;246;2342;-50
2022/08/08 08:22:45;;;;;;;;;;;22.00;49.20;;;;;;481525;247;1100;-50
2022/08/08 08:24:46;;;;;;;;;;;22.00;49.10;;;;;;481624;247;1069;-51
2022/08/08 08:26:47;;;;;;;;;;;22.00;49.10;;;;;;481528;247;1075;-50
2022/08/08 08:28:49;;;;;;;;;;;22.00;49.00;;;;;;481493;247;1104;-50
2022/08/08 08:30:50;;;;;;;;;;;22.00;49.00;;;;;;481426;247;1079;-50
2022/08/08 08:32:52;;;;;;;;;;;22.00;49.00;;;;;;481494;247;1067;-51
2022/08/08 08:34:53;;;;;;;;;;;22.00;49.00;;;;;;481336;247;1185;-51
2022/08/08 08:36:54;;;;;;;;;;;22.00;49.00;;;;;;481391;247;1073;-51
2022/08/08 08:38:56;;;;;;;;;;;22.00;48.90;;;;;;481469;247;2188;-50
2022/08/08 08:40:57;;;;;;;;;;;22.00;48.90;;;;;;481531;247;1182;-51
2022/08/08 08:42:59;;;;;;;;;;;22.00;48.80;;;;;;481592;247;1084;-51
2022/08/08 08:45:00;;;;;;;;;;;22.00;48.90;;;;;;481492;247;1117;-51
2022/08/08 08:47:01;;;;;;;;;;;22.00;48.80;;;;;;481482;247;1120;-51
2022/08/08 08:49:03;;;;;;;;;;;22.00;48.80;;;;;;481268;247;1197;-52
2022/08/08 08:51:04;;;;;;;;;;;22.00;48.70;;;;;;481290;247;1069;-51
2022/08/08 08:53:06;;;;;;;;;;;22.00;48.80;;;;;;481229;247;1119;-51
2022/08/08 08:55:07;;;;;;;;;;;22.00;48.70;;;;;;481239;247;1108;-50
2022/08/08 08:57:08;;;;;;;;;;;22.00;48.70;;;;;;481191;247;1110;-50
2022/08/08 08:59:09;;;;;;;;;;;22.00;48.80;;;;;;481281;247;2125;-50
2022/08/08 09:01:11;;;;;;;;;;;22.00;48.70;;;;;;481241;247;1195;-50
2022/08/08 09:03:12;;;;;;;;;;;22.00;48.70;;;;;;481293;247;1118;-50
2022/08/08 09:05:13;;;;;;;;;;;22.00;48.60;;;;;;481259;247;1236;-51
2022/08/08 09:07:15;;;;;;;;;;;22.00;48.60;;;;;;481308;247;1239;-51
2022/08/08 09:09:16;;;;;;;;;;;22.00;48.70;;;;;;481343;247;1092;-51
2022/08/08 09:11:17;;;;;;;;;;;22.00;48.60;;;;;;481546;247;1267;-51
2022/08/08 09:13:19;;;;;;;;;;;22.00;48.70;;;;;;481486;247;1257;-50
2022/08/08 09:15:20;;;;;;;;;;;22.00;48.60;;;;;;481385;247;2070;-51
2022/08/08 09:17:23;;;;;;;;;;;22.00;48.50;;;;;;481578;247;1227;-50
2022/08/08 09:19:24;;;;;;;;;;;22.00;48.50;;;;;;481417;247;2348;-51
2022/08/08 09:21:28;;;;;;;;;;;22.00;48.60;;;;;;481580;247;1203;-50
2022/08/08 09:23:29;;;;;;;;;;;22.00;48.50;;;;;;481331;247;1088;-51
2022/08/08 09:25:30;;;;;;;;;;;22.00;48.50;;;;;;481430;247;1048;-51
2022/08/08 09:27:32;;;;;;;;;;;22.00;48.50;;;;;;481225;247;1078;-52
2022/08/08 09:29:33;;;;;;;;;;;22.00;48.40;;;;;;481255;247;1211;-50
2022/08/08 09:31:34;;;;;;;;;;;22.00;48.40;;;;;;481268;247;1044;-51
2022/08/08 09:33:36;;;;;;;;;;;22.00;48.30;;;;;;481087;246;1124;-50
2022/08/08 09:35:37;;;;;;;;;;;22.00;48.30;;;;;;481348;247;1061;-50
2022/08/08 09:37:38;;;;;;;;;;;22.00;48.30;;;;;;481353;247;1926;-51
2022/08/08 09:39:40;;;;;;;;;;;22.00;48.30;;;;;;481478;247;2181;-51
2022/08/08 09:41:41;;;;;;;;;;;22.00;48.30;;;;;;481286;247;1261;-51
2022/08/08 09:43:42;;;;;;;;;;;21.90;48.10;;;;;;481378;247;1171;-51
2022/08/08 09:45:44;;;;;;;;;;;22.00;48.30;;;;;;481356;247;1497;-51
2022/08/08 09:47:45;;;;;;;;;;;22.00;48.30;;;;;;481576;247;1327;-51
2022/08/08 09:49:46;;;;;;;;;;;22.00;48.20;;;;;;481343;247;1246;-50
2022/08/08 09:51:48;;;;;;;;;;;22.00;48.30;;;;;;481122;247;1205;-50
2022/08/08 09:53:49;;;;;;;;;;;21.90;48.20;;;;;;481455;247;1196;-50
2022/08/08 09:55:51;;;;;;;;;;;22.00;48.30;;;;;;481347;247;1267;-50
2022/08/08 09:57:52;;;;;;;;;;;22.00;48.30;;;;;;481433;247;1220;-49
2022/08/08 09:59:53;;;;;;;;;;;22.00;48.20;;;;;;481344;247;2401;-50
2022/08/08 10:01:55;;;;;;;;;;;22.00;48.10;;;;;;481614;246;1202;-50
2022/08/08 10:03:56;;;;;;;;;;;22.00;48.10;;;;;;481284;247;1417;-50
2022/08/08 10:05:57;;;;;;;;;;;22.00;48.10;;;;;;481338;247;1416;-49
2022/08/08 10:07:59;;;;;;;;;;;22.00;48.10;;;;;;481849;247;1158;-50
2022/08/08 10:10:00;;;;;;;;;;;22.10;48.10;;;;;;481678;247;1175;-50
2022/08/08 10:12:01;;;;;;;;;;;22.10;48.10;;;;;;481570;247;1044;-50
2022/08/08 10:14:03;;;;;;;;;;;22.10;48.10;;;;;;481383;247;1294;-51
2022/08/08 10:16:04;;;;;;;;;;;22.10;48.00;;;;;;481446;247;1346;-50
2022/08/08 10:18:06;;;;;;;;;;;22.10;48.00;;;;;;481507;247;1161;-50
2022/08/08 10:20:07;;;;;;;;;;;22.10;48.10;;;;;;481033;248;2193;-50
2022/08/08 10:22:08;;;;;;;;;;;22.10;48.10;;;;;;481100;247;1435;-50
2022/08/08 10:24:10;;;;;;;;;;;22.10;48.10;;;;;;481111;247;1156;-50
2022/08/08 10:26:11;;;;;;;;;;;22.10;48.20;;;;;;481323;247;1194;-49
2022/08/08 10:28:12;;;;;;;;;;;22.10;48.10;;;;;;481513;247;1071;-50
2022/08/08 10:30:14;;;;;;;;;;;22.10;48.20;;;;;;481356;247;1193;-50
2022/08/08 10:34:35;;;;;;;;;;;22.10;48.10;;;;;;481579;247;1202;-50
2022/08/08 10:36:36;;;;;;;;;;;22.10;48.10;;;;;;481625;246;1069;-49
2022/08/08 10:38:37;;;;;;;;;;;22.10;48.20;;;;;;481468;247;2217;-49
2022/08/08 10:40:38;;;;;;;;;;;22.10;48.30;;;;;;481421;247;1225;-50
2022/08/08 10:42:40;;;;;;;;;;;22.20;48.20;;;;;;481427;247;1218;-52
2022/08/08 10:44:41;;;;;;;;;;;22.20;48.20;;;;;;481280;247;1191;-50
2022/08/08 10:46:42;;;;;;;;;;;22.10;48.20;;;;;;481329;246;1305;-50
2022/08/08 10:48:44;;;;;;;;;;;22.10;48.10;;;;;;481455;247;1148;-51
2022/08/08 10:50:45;;;;;;;;;;;22.20;48.20;;;;;;474553;246;1318;-50
2022/08/08 10:52:46;;;;;;;;;;;22.20;48.20;;;;;;477550;247;1156;-50
2022/08/08 10:54:48;;;;;;;;;;;22.20;48.10;;;;;;480504;247;1105;-51
2022/08/08 10:56:49;;;;;;;;;;;22.20;48.00;;;;;;481260;247;1092;-51
2022/08/08 10:58:51;;;;;;;;;;;22.20;48.00;;;;;;481428;246;2189;-50
2022/08/08 11:00:52;;;;;;;;;;;22.10;48.10;;;;;;481405;246;1112;-50
2022/08/08 11:02:54;;;;;;;;;;;22.20;48.10;;;;;;481492;247;1466;-50
2022/08/08 11:04:55;;;;;;;;;;;22.20;48.00;;;;;;481474;247;1210;-50
2022/08/08 11:06:56;;;;;;;;;;;22.20;48.00;;;;;;481586;247;1390;-49
2022/08/08 11:08:57;;;;;;;;;;;22.20;48.10;;;;;;481438;247;1335;-51
2022/08/08 11:10:59;;;;;;;;;;;22.20;47.90;;;;;;481405;247;1191;-50
2022/08/08 11:13:00;;;;;;;;;;;22.20;47.90;;;;;;481324;247;1240;-50
2022/08/08 11:15:01;;;;;;;;;;;22.20;47.90;;;;;;481165;246;1243;-51
2022/08/08 11:17:03;;;;;;;;;;;22.20;47.80;;;;;;480545;247;1182;-50
2022/08/08 11:19:04;;;;;;;;;;;22.20;47.80;;;;;;481484;247;2204;-51
2022/08/08 11:21:06;;;;;;;;;;;22.20;47.80;;;;;;481502;247;1316;-50
2022/08/08 11:23:07;;;;;;;;;;;22.20;47.80;;;;;;481450;247;1451;-50
2022/08/08 11:25:09;;;;;;;;;;;22.20;47.70;;;;;;481488;247;1258;-51
2022/08/08 11:27:09;;;;;;;;;;;22.20;47.80;;;;;;481504;247;1528;-50
2022/08/08 11:29:11;;;;;;;;;;;22.10;47.70;;;;;;481382;247;1250;-50
2022/08/08 11:31:12;;;;;;;;;;;22.10;47.80;;;;;;481537;247;1511;-50
2022/08/08 11:33:13;;;;;;;;;;;22.10;47.80;;;;;;481616;246;1211;-50
2022/08/08 11:35:16;;;;;;;;;;;22.10;47.80;;;;;;479967;246;1127;-51
2022/08/08 11:37:16;;;;;;;;;;;22.10;47.70;;;;;;472037;247;2111;-50
2022/08/08 11:39:17;;;;;;;;;;;22.10;47.60;;;;;;481646;247;2133;-50
2022/08/08 11:41:18;;;;;;;;;;;22.10;47.60;;;;;;481478;247;1201;-50
2022/08/08 11:43:20;;;;;;;;;;;22.10;47.60;;;;;;481485;247;1374;-50
2022/08/08 11:45:22;;;;;;;;;;;22.10;47.60;;;;;;481168;246;1276;-50
2022/08/08 11:47:23;;;;;;;;;;;22.10;47.50;;;;;;481336;246;1130;-50
2022/08/08 11:49:24;;;;;;;;;;;22.10;47.60;;;;;;481397;246;1423;-50
2022/08/08 11:51:27;;;;;;;;;;;22.10;47.60;;;;;;481513;247;1536;-49
2022/08/08 11:53:28;;;;;;;;;;;22.10;47.60;;;;;;481357;247;1254;-51
2022/08/08 11:55:29;;;;;;;;;;;22.10;47.60;;;;;;481416;247;1365;-50
2022/08/08 11:57:32;;;;;;;;;;;22.10;47.60;;;;;;481447;247;1183;-50
2022/08/08 11:59:32;;;;;;;;;;;22.10;47.50;;;;;;481227;247;2225;-50
2022/08/08 12:01:33;;;;;;;;;;;22.00;47.40;;;;;;481212;247;1294;-51
2022/08/08 12:03:35;;;;;;;;;;;22.10;47.50;;;;;;481162;247;1200;-51
2022/08/08 12:05:37;;;;;;;;;;;22.10;47.40;;;;;;481139;246;1326;-52